createdAt,value
2017-09-11T00:00:20.847Z,0
2017-09-11T00:01:31.268Z,0
2017-09-11T00:02:41.940Z,0
2017-09-11T00:03:52.405Z,0
2017-09-11T00:05:02.534Z,0
2017-09-11T00:06:12.971Z,0
2017-09-11T00:07:23.405Z,0
2017-09-11T00:08:34.110Z,0
2017-09-11T00:09:44.566Z,0
2017-09-11T00:10:55.168Z,0
2017-09-11T00:12:05.601Z,0
2017-09-11T00:13:15.720Z,0
2017-09-11T00:14:26.086Z,0
2017-09-11T00:15:35.896Z,0
2017-09-11T00:16:46.339Z,0
2017-09-11T00:17:56.883Z,0
2017-09-11T00:19:06.999Z,0
2017-09-11T00:20:17.721Z,0
2017-09-11T00:21:28.175Z,0
2017-09-11T00:22:38.659Z,0
2017-09-11T00:23:48.782Z,0
2017-09-11T00:24:59.205Z,0
2017-09-11T00:26:09.901Z,0
2017-09-11T00:27:19.838Z,0
2017-09-11T00:28:30.272Z,0
2017-09-11T00:29:40.793Z,0
2017-09-11T00:30:51.218Z,0
2017-09-11T00:32:01.908Z,0
2017-09-11T00:33:12.322Z,0
2017-09-11T00:34:22.776Z,0
2017-09-11T00:35:33.228Z,0
2017-09-11T00:36:43.705Z,0
2017-09-11T00:37:53.783Z,0
2017-09-11T00:39:03.889Z,0
2017-09-11T00:40:14.318Z,0
2017-09-11T00:41:24.767Z,0
2017-09-11T00:42:34.754Z,0
2017-09-11T00:43:45.136Z,0
2017-09-11T00:44:55.650Z,0
2017-09-11T00:46:06.065Z,0
2017-09-11T00:47:16.494Z,0
2017-09-11T00:48:26.910Z,0
2017-09-11T00:49:37.496Z,0
2017-09-11T00:50:47.945Z,0
2017-09-11T00:51:58.375Z,0
2017-09-11T00:53:08.813Z,0
2017-09-11T00:54:19.368Z,0
2017-09-11T00:55:30.093Z,0
2017-09-11T00:56:40.527Z,0
2017-09-11T00:57:51.834Z,0
2017-09-11T00:59:02.280Z,0
2017-09-11T01:00:12.722Z,0
2017-09-11T01:01:23.390Z,0
2017-09-11T01:02:33.508Z,0
2017-09-11T01:03:43.631Z,0
2017-09-11T01:04:54.073Z,0
2017-09-11T01:06:04.566Z,0
2017-09-11T01:07:15.241Z,0
2017-09-11T01:08:25.662Z,0
2017-09-11T01:09:36.075Z,0
2017-09-11T01:10:46.574Z,0
2017-09-11T01:11:57.069Z,0
2017-09-11T01:13:07.790Z,0
2017-09-11T01:14:18.202Z,0
2017-09-11T01:15:28.314Z,0
2017-09-11T01:16:38.752Z,0
2017-09-11T01:17:49.214Z,0
2017-09-11T01:18:59.894Z,0
2017-09-11T01:20:10.332Z,0
2017-09-11T01:21:20.785Z,0
2017-09-11T01:22:31.218Z,0
2017-09-11T01:23:41.720Z,0
2017-09-11T01:24:52.404Z,0
2017-09-11T01:26:02.831Z,0
2017-09-11T01:27:13.259Z,0
2017-09-11T01:28:23.698Z,0
2017-09-11T01:29:34.378Z,0
2017-09-11T01:30:45.135Z,0
2017-09-11T01:31:55.579Z,0
2017-09-11T01:33:06.005Z,0
2017-09-11T01:34:16.114Z,0
2017-09-11T01:35:26.574Z,0
2017-09-11T01:36:37.247Z,0
2017-09-11T01:37:47.696Z,0
2017-09-11T01:38:57.806Z,0
2017-09-11T01:40:07.992Z,0
2017-09-11T01:41:18.536Z,0
2017-09-11T01:42:28.905Z,0
2017-09-11T01:43:39.377Z,0
2017-09-11T01:44:49.802Z,0
2017-09-11T01:46:00.351Z,0
2017-09-11T01:47:10.795Z,0
2017-09-11T01:48:21.517Z,0
2017-09-11T01:49:32.003Z,0
2017-09-11T01:50:42.435Z,0
2017-09-11T01:51:52.918Z,0
2017-09-11T01:53:03.340Z,0
2017-09-11T01:54:14.018Z,0
2017-09-11T01:55:24.524Z,0
2017-09-11T01:56:34.946Z,0
2017-09-11T01:57:45.365Z,0
2017-09-11T01:58:55.887Z,0
2017-09-11T02:00:06.613Z,0
2017-09-11T02:01:16.741Z,0
2017-09-11T02:02:27.168Z,0
2017-09-11T02:03:37.613Z,0
2017-09-11T02:04:48.032Z,0
2017-09-11T02:05:58.495Z,0
2017-09-11T02:07:08.983Z,0
2017-09-11T02:08:19.709Z,0
2017-09-11T02:09:30.142Z,0
2017-09-11T02:10:40.558Z,0
2017-09-11T02:11:51.266Z,0
2017-09-11T02:13:01.379Z,0
2017-09-11T02:14:11.807Z,0
2017-09-11T02:15:22.280Z,0
2017-09-11T02:16:32.696Z,0
2017-09-11T02:17:43.133Z,0
2017-09-11T02:18:53.558Z,0
2017-09-11T02:20:04.098Z,0
2017-09-11T02:21:14.554Z,0
2017-09-11T02:22:25.055Z,0
2017-09-11T02:23:35.783Z,0
2017-09-11T02:24:46.195Z,0
2017-09-11T02:25:56.632Z,0
2017-09-11T02:27:07.263Z,0
2017-09-11T02:28:17.173Z,0
2017-09-11T02:29:27.403Z,0
2017-09-11T02:30:38.067Z,0
2017-09-11T02:31:48.521Z,0
2017-09-11T02:32:59.006Z,0
2017-09-11T02:34:09.428Z,0
2017-09-11T02:35:20.126Z,0
2017-09-11T02:36:30.636Z,0
2017-09-11T02:37:41.056Z,0
2017-09-11T02:38:51.263Z,0
2017-09-11T02:40:01.369Z,0
2017-09-11T02:41:12.148Z,0
2017-09-11T02:42:22.770Z,0
2017-09-11T02:43:33.219Z,0
2017-09-11T02:44:43.670Z,0
2017-09-11T02:45:54.108Z,0
2017-09-11T02:47:04.822Z,0
2017-09-11T02:48:15.031Z,0
2017-09-11T02:49:25.503Z,0
2017-09-11T02:50:35.920Z,0
2017-09-11T02:51:46.063Z,0
2017-09-11T02:52:56.559Z,0
2017-09-11T02:54:06.989Z,0
2017-09-11T02:55:17.126Z,0
2017-09-11T02:56:27.587Z,0
2017-09-11T02:57:38.038Z,0
2017-09-11T02:58:48.726Z,0
2017-09-11T02:59:59.159Z,0
2017-09-11T03:01:09.647Z,0
2017-09-11T03:02:20.067Z,0
2017-09-11T03:03:30.505Z,0
2017-09-11T03:04:41.269Z,0
2017-09-11T03:05:51.673Z,0
2017-09-11T03:07:03.124Z,0
2017-09-11T03:08:13.547Z,0
2017-09-11T03:09:23.984Z,0
2017-09-11T03:10:34.682Z,0
2017-09-11T03:11:45.116Z,0
2017-09-11T03:12:55.544Z,0
2017-09-11T03:14:06.003Z,0
2017-09-11T03:15:16.445Z,0
2017-09-11T03:16:27.104Z,0
2017-09-11T03:17:37.633Z,0
2017-09-11T03:18:48.057Z,0
2017-09-11T03:19:58.536Z,0
2017-09-11T03:21:08.951Z,0
2017-09-11T03:22:19.661Z,0
2017-09-11T03:23:30.153Z,0
2017-09-11T03:24:40.593Z,0
2017-09-11T03:25:51.015Z,0
2017-09-11T03:27:01.481Z,0
2017-09-11T03:28:12.379Z,0
2017-09-11T03:29:22.949Z,0
2017-09-11T03:30:33.454Z,0
2017-09-11T03:31:43.874Z,0
2017-09-11T03:32:54.039Z,0
2017-09-11T03:34:04.121Z,0
2017-09-11T03:35:14.564Z,0
2017-09-11T03:36:24.991Z,0
2017-09-11T03:37:35.439Z,0
2017-09-11T03:38:45.911Z,0
2017-09-11T03:39:55.869Z,0
2017-09-11T03:41:06.326Z,0
2017-09-11T03:42:16.973Z,0
2017-09-11T03:43:27.423Z,0
2017-09-11T03:44:37.856Z,0
2017-09-11T03:45:48.531Z,0
2017-09-11T03:46:58.982Z,0
2017-09-11T03:48:09.408Z,0
2017-09-11T03:49:19.956Z,0
2017-09-11T03:50:30.377Z,0
2017-09-11T03:51:41.142Z,0
2017-09-11T03:52:51.589Z,0
2017-09-11T03:54:02.061Z,0
2017-09-11T03:55:12.509Z,0
2017-09-11T03:56:23.023Z,0
2017-09-11T03:57:33.725Z,0
2017-09-11T03:58:44.168Z,0
2017-09-11T03:59:54.614Z,0
2017-09-11T04:01:05.060Z,0
2017-09-11T04:02:15.716Z,0
2017-09-11T04:03:26.111Z,0
2017-09-11T04:04:36.592Z,0
2017-09-11T04:05:47.013Z,0
2017-09-11T04:06:57.433Z,0
2017-09-11T04:08:07.950Z,0
2017-09-11T04:09:18.632Z,0
2017-09-11T04:10:28.794Z,0
2017-09-11T04:11:38.914Z,0
2017-09-11T04:12:49.353Z,0
2017-09-11T04:13:59.774Z,0
2017-09-11T04:15:10.460Z,0
2017-09-11T04:16:20.599Z,0
2017-09-11T04:17:31.210Z,0
2017-09-11T04:18:41.449Z,0
2017-09-11T04:19:51.900Z,0
2017-09-11T04:21:02.580Z,0
2017-09-11T04:22:13.047Z,0
2017-09-11T04:23:23.524Z,0
2017-09-11T04:24:34.012Z,0
2017-09-11T04:25:44.432Z,0
2017-09-11T04:26:55.111Z,0
2017-09-11T04:28:05.638Z,0
2017-09-11T04:29:17.048Z,0
2017-09-11T04:30:27.571Z,0
2017-09-11T04:31:38.009Z,0
2017-09-11T04:32:48.690Z,0
2017-09-11T04:33:59.115Z,5
2017-09-11T04:35:09.526Z,5
2017-09-11T04:36:20.098Z,5
2017-09-11T04:37:30.841Z,5
2017-09-11T04:38:41.575Z,5
2017-09-11T04:39:51.716Z,5
2017-09-11T04:41:01.911Z,10
2017-09-11T04:42:12.338Z,10
2017-09-11T04:43:22.875Z,10
2017-09-11T04:44:34.553Z,10
2017-09-11T04:45:44.974Z,10
2017-09-11T04:46:55.417Z,10
2017-09-11T04:48:05.839Z,15
2017-09-11T04:49:16.324Z,15
2017-09-11T04:50:27.045Z,15
2017-09-11T04:51:37.508Z,15
2017-09-11T04:52:47.952Z,15
2017-09-11T04:53:58.411Z,15
2017-09-11T04:55:08.851Z,20
2017-09-11T04:56:19.528Z,20
2017-09-11T04:57:29.973Z,20
2017-09-11T04:58:40.400Z,20
2017-09-11T04:59:50.929Z,25
2017-09-11T05:01:01.074Z,25
2017-09-11T05:02:11.323Z,30
2017-09-11T05:03:21.759Z,35
2017-09-11T05:04:32.210Z,40
2017-09-11T05:05:42.638Z,40
2017-09-11T05:06:53.058Z,45
2017-09-11T05:08:03.758Z,50
2017-09-11T05:09:14.190Z,55
2017-09-11T05:10:24.301Z,55
2017-09-11T05:11:34.751Z,55
2017-09-11T05:12:45.389Z,55
2017-09-11T05:13:55.749Z,60
2017-09-11T05:15:06.180Z,70
2017-09-11T05:16:16.600Z,70
2017-09-11T05:17:27.036Z,70
2017-09-11T05:18:37.485Z,70
2017-09-11T05:19:48.165Z,70
2017-09-11T05:20:58.632Z,75
2017-09-11T05:22:09.058Z,75
2017-09-11T05:23:19.478Z,75
2017-09-11T05:24:29.929Z,80
2017-09-11T05:25:40.615Z,80
2017-09-11T05:26:51.059Z,85
2017-09-11T05:28:01.538Z,85
2017-09-11T05:29:11.756Z,90
2017-09-11T05:30:22.377Z,95
2017-09-11T05:31:33.068Z,100
2017-09-11T05:32:44.614Z,105
2017-09-11T05:33:55.087Z,110
2017-09-11T05:35:05.195Z,110
2017-09-11T05:36:15.643Z,115
2017-09-11T05:37:26.313Z,120
2017-09-11T05:38:36.766Z,125
2017-09-11T05:39:47.187Z,130
2017-09-11T05:40:57.640Z,140
2017-09-11T05:42:07.839Z,145
2017-09-11T05:43:18.523Z,150
2017-09-11T05:44:29.068Z,155
2017-09-11T05:45:39.261Z,170
2017-09-11T05:46:49.693Z,180
2017-09-11T05:47:59.694Z,195
2017-09-11T05:49:09.868Z,210
2017-09-11T05:50:20.299Z,220
2017-09-11T05:51:30.790Z,225
2017-09-11T05:52:41.321Z,220
2017-09-11T05:53:51.778Z,225
2017-09-11T05:55:02.542Z,220
2017-09-11T05:56:13.031Z,225
2017-09-11T05:57:23.073Z,230
2017-09-11T05:58:33.538Z,225
2017-09-11T05:59:43.969Z,220
2017-09-11T06:00:54.672Z,220
2017-09-11T06:02:05.116Z,215
2017-09-11T06:03:15.559Z,210
2017-09-11T06:04:25.690Z,205
2017-09-11T06:05:36.121Z,205
2017-09-11T06:06:46.857Z,200
2017-09-11T06:07:57.295Z,195
2017-09-11T06:09:07.277Z,200
2017-09-11T06:10:17.719Z,200
2017-09-11T06:11:28.417Z,200
2017-09-11T06:12:39.138Z,205
2017-09-11T06:13:49.235Z,215
2017-09-11T06:14:59.711Z,225
2017-09-11T06:16:10.147Z,225
2017-09-11T06:17:20.634Z,225
2017-09-11T06:18:31.344Z,210
2017-09-11T06:19:41.203Z,205
2017-09-11T06:20:51.333Z,210
2017-09-11T06:22:01.777Z,210
2017-09-11T06:23:12.236Z,205
2017-09-11T06:24:22.605Z,205
2017-09-11T06:25:32.746Z,195
2017-09-11T06:26:42.732Z,190
2017-09-11T06:27:53.178Z,185
2017-09-11T06:29:03.612Z,185
2017-09-11T06:30:15.279Z,180
2017-09-11T06:31:25.405Z,180
2017-09-11T06:32:35.633Z,180
2017-09-11T06:33:46.164Z,175
2017-09-11T06:34:56.594Z,170
2017-09-11T06:36:07.332Z,165
2017-09-11T06:37:17.890Z,160
2017-09-11T06:38:28.313Z,155
2017-09-11T06:39:38.742Z,145
2017-09-11T06:40:48.952Z,145
2017-09-11T06:41:59.374Z,135
2017-09-11T06:43:09.896Z,130
2017-09-11T06:44:20.326Z,130
2017-09-11T06:45:30.497Z,135
2017-09-11T06:46:41.061Z,145
2017-09-11T06:47:51.540Z,145
2017-09-11T06:49:01.746Z,145
2017-09-11T06:50:12.286Z,145
2017-09-11T06:51:22.410Z,140
2017-09-11T06:52:32.836Z,140
2017-09-11T06:53:43.602Z,140
2017-09-11T06:54:54.133Z,140
2017-09-11T06:56:04.558Z,140
2017-09-11T06:57:14.674Z,145
2017-09-11T06:58:25.119Z,145
2017-09-11T06:59:36.796Z,145
2017-09-11T07:00:47.263Z,135
2017-09-11T07:01:57.773Z,130
2017-09-11T07:03:08.213Z,130
2017-09-11T07:04:18.648Z,130
2017-09-11T07:05:28.639Z,140
2017-09-11T07:06:39.154Z,155
2017-09-11T07:07:49.581Z,160
2017-09-11T07:09:00.006Z,160
2017-09-11T07:10:10.468Z,160
2017-09-11T07:11:20.847Z,160
2017-09-11T07:12:31.283Z,160
2017-09-11T07:13:41.714Z,170
2017-09-11T07:14:52.170Z,180
2017-09-11T07:16:02.842Z,190
2017-09-11T07:17:13.621Z,190
2017-09-11T07:18:24.091Z,175
2017-09-11T07:19:34.603Z,170
2017-09-11T07:20:45.035Z,155
2017-09-11T07:21:55.122Z,140
2017-09-11T07:23:05.882Z,120
2017-09-11T07:24:16.449Z,115
2017-09-11T07:25:26.709Z,115
2017-09-11T07:26:36.628Z,120
2017-09-11T07:27:47.093Z,120
2017-09-11T07:28:57.851Z,125
2017-09-11T07:30:08.309Z,130
2017-09-11T07:31:18.927Z,130
2017-09-11T07:32:29.455Z,120
2017-09-11T07:33:39.591Z,110
2017-09-11T07:34:50.337Z,105
2017-09-11T07:36:00.786Z,110
2017-09-11T07:37:11.261Z,120
2017-09-11T07:38:21.783Z,125
2017-09-11T07:39:32.283Z,125
2017-09-11T07:40:42.966Z,125
2017-09-11T07:41:53.417Z,125
2017-09-11T07:43:03.908Z,125
2017-09-11T07:44:14.333Z,125
2017-09-11T07:45:24.507Z,120
2017-09-11T07:46:35.060Z,115
2017-09-11T07:47:45.531Z,110
2017-09-11T07:48:56.024Z,105
2017-09-11T07:50:06.463Z,110
2017-09-11T07:51:16.902Z,120
2017-09-11T07:52:27.466Z,125
2017-09-11T07:53:37.920Z,120
2017-09-11T07:54:48.382Z,110
2017-09-11T07:55:58.866Z,110
2017-09-11T07:57:09.310Z,120
2017-09-11T07:58:20.002Z,140
2017-09-11T07:59:30.493Z,165
2017-09-11T08:00:40.912Z,190
2017-09-11T08:01:51.350Z,210
2017-09-11T08:03:01.786Z,215
2017-09-11T08:04:12.150Z,195
2017-09-11T08:05:22.823Z,170
2017-09-11T08:06:33.277Z,155
2017-09-11T08:07:43.392Z,150
2017-09-11T08:08:53.842Z,155
2017-09-11T08:10:04.246Z,155
2017-09-11T08:11:14.678Z,145
2017-09-11T08:12:26.092Z,150
2017-09-11T08:13:36.649Z,165
2017-09-11T08:14:47.198Z,175
2017-09-11T08:15:57.988Z,180
2017-09-11T08:17:08.684Z,180
2017-09-11T08:18:19.098Z,175
2017-09-11T08:19:29.528Z,170
2017-09-11T08:20:39.963Z,190
2017-09-11T08:21:50.682Z,215
2017-09-11T08:23:01.137Z,225
2017-09-11T08:24:11.596Z,215
2017-09-11T08:25:22.094Z,220
2017-09-11T08:26:32.533Z,240
2017-09-11T08:27:43.215Z,280
2017-09-11T08:28:53.671Z,295
2017-09-11T08:30:04.228Z,300
2017-09-11T08:31:14.455Z,285
2017-09-11T08:32:25.207Z,290
2017-09-11T08:33:35.934Z,285
2017-09-11T08:34:46.450Z,285
2017-09-11T08:35:56.584Z,275
2017-09-11T08:37:06.773Z,265
2017-09-11T08:38:17.202Z,260
2017-09-11T08:39:27.932Z,255
2017-09-11T08:40:38.094Z,270
2017-09-11T08:41:48.629Z,270
2017-09-11T08:42:59.308Z,260
2017-09-11T08:44:10.049Z,235
2017-09-11T08:45:20.760Z,230
2017-09-11T08:46:31.204Z,235
2017-09-11T08:47:41.699Z,245
2017-09-11T08:48:52.130Z,255
2017-09-11T08:50:02.782Z,275
2017-09-11T08:51:13.186Z,275
2017-09-11T08:52:23.310Z,270
2017-09-11T08:53:33.786Z,270
2017-09-11T08:54:44.223Z,255
2017-09-11T08:55:54.686Z,265
2017-09-11T08:57:05.374Z,260
2017-09-11T08:58:15.800Z,260
2017-09-11T08:59:26.410Z,285
2017-09-11T09:00:36.527Z,305
2017-09-11T09:01:46.976Z,280
2017-09-11T09:02:57.855Z,230
2017-09-11T09:04:08.310Z,210
2017-09-11T09:05:18.735Z,205
2017-09-11T09:06:29.204Z,205
2017-09-11T09:07:39.637Z,210
2017-09-11T09:08:50.305Z,180
2017-09-11T09:10:00.951Z,160
2017-09-11T09:11:11.529Z,155
2017-09-11T09:12:22.246Z,155
2017-09-11T09:13:32.695Z,160
2017-09-11T09:14:43.458Z,155
2017-09-11T09:15:53.945Z,140
2017-09-11T09:17:04.362Z,135
2017-09-11T09:18:14.860Z,120
2017-09-11T09:19:25.297Z,120
2017-09-11T09:20:35.975Z,115
2017-09-11T09:21:46.453Z,115
2017-09-11T09:22:56.884Z,110
2017-09-11T09:24:07.422Z,100
2017-09-11T09:25:18.135Z,95
2017-09-11T09:26:28.840Z,95
2017-09-11T09:27:39.279Z,95
2017-09-11T09:28:49.744Z,95
2017-09-11T09:30:00.415Z,95
2017-09-11T09:31:10.837Z,105
2017-09-11T09:32:21.670Z,125
2017-09-11T09:33:32.616Z,140
2017-09-11T09:34:43.050Z,155
2017-09-11T09:35:53.528Z,155
2017-09-11T09:37:03.967Z,145
2017-09-11T09:38:14.657Z,160
2017-09-11T09:39:25.359Z,190
2017-09-11T09:40:35.930Z,190
2017-09-11T09:41:46.587Z,185
2017-09-11T09:42:57.027Z,170
2017-09-11T09:44:07.743Z,170
2017-09-11T09:45:18.302Z,170
2017-09-11T09:46:28.742Z,170
2017-09-11T09:47:39.255Z,160
2017-09-11T09:48:49.707Z,160
2017-09-11T09:50:00.066Z,160
2017-09-11T09:51:10.506Z,155
2017-09-11T09:52:20.964Z,160
2017-09-11T09:53:31.625Z,175
2017-09-11T09:54:42.088Z,175
2017-09-11T09:55:52.850Z,165
2017-09-11T09:57:03.306Z,145
2017-09-11T09:58:13.758Z,135
2017-09-11T09:59:24.253Z,140
2017-09-11T10:00:34.904Z,135
2017-09-11T10:01:45.628Z,130
2017-09-11T10:02:56.501Z,125
2017-09-11T10:04:06.661Z,115
2017-09-11T10:05:16.783Z,110
2017-09-11T10:06:26.784Z,100
2017-09-11T10:07:37.466Z,95
2017-09-11T10:08:47.902Z,95
2017-09-11T10:09:58.225Z,95
2017-09-11T10:11:08.692Z,95
2017-09-11T10:12:19.267Z,90
2017-09-11T10:13:30.008Z,95
2017-09-11T10:14:40.244Z,95
2017-09-11T10:15:50.758Z,100
2017-09-11T10:17:01.189Z,105
2017-09-11T10:18:11.903Z,105
2017-09-11T10:19:22.585Z,115
2017-09-11T10:20:33.050Z,115
2017-09-11T10:21:43.548Z,115
2017-09-11T10:22:54.003Z,120
2017-09-11T10:24:04.494Z,125
2017-09-11T10:25:15.180Z,120
2017-09-11T10:26:25.621Z,120
2017-09-11T10:27:36.061Z,135
2017-09-11T10:28:46.559Z,155
2017-09-11T10:29:57.023Z,150
2017-09-11T10:31:07.966Z,165
2017-09-11T10:32:18.415Z,175
2017-09-11T10:33:28.840Z,200
2017-09-11T10:34:39.303Z,140
2017-09-11T10:35:49.739Z,110
2017-09-11T10:37:00.438Z,115
2017-09-11T10:38:10.651Z,130
2017-09-11T10:39:21.126Z,135
2017-09-11T10:40:31.554Z,135
2017-09-11T10:41:42.075Z,130
2017-09-11T10:42:52.798Z,150
2017-09-11T10:44:03.234Z,185
2017-09-11T10:45:13.711Z,235
2017-09-11T10:46:23.850Z,225
2017-09-11T10:47:34.560Z,275
2017-09-11T10:48:45.277Z,340
2017-09-11T10:49:55.744Z,335
2017-09-11T10:51:06.251Z,300
2017-09-11T10:52:16.718Z,295
2017-09-11T10:53:26.853Z,290
2017-09-11T10:54:37.676Z,255
2017-09-11T10:55:48.111Z,240
2017-09-11T10:56:58.281Z,235
2017-09-11T10:58:08.722Z,255
2017-09-11T10:59:19.194Z,305
2017-09-11T11:00:29.929Z,270
2017-09-11T11:01:40.376Z,255
2017-09-11T11:02:50.897Z,275
2017-09-11T11:04:01.347Z,285
2017-09-11T11:05:11.226Z,225
2017-09-11T11:06:21.934Z,180
2017-09-11T11:07:32.387Z,180
2017-09-11T11:08:42.460Z,175
2017-09-11T11:09:52.921Z,165
2017-09-11T11:11:03.356Z,160
2017-09-11T11:12:14.072Z,165
2017-09-11T11:13:24.521Z,160
2017-09-11T11:14:35.011Z,160
2017-09-11T11:15:45.441Z,155
2017-09-11T11:16:55.933Z,150
2017-09-11T11:18:06.630Z,160
2017-09-11T11:19:17.102Z,160
2017-09-11T11:20:27.243Z,165
2017-09-11T11:21:37.698Z,170
2017-09-11T11:22:48.129Z,175
2017-09-11T11:23:58.873Z,165
2017-09-11T11:25:09.322Z,160
2017-09-11T11:26:19.840Z,170
2017-09-11T11:27:30.273Z,195
2017-09-11T11:28:40.738Z,250
2017-09-11T11:29:51.462Z,270
2017-09-11T11:31:01.914Z,245
2017-09-11T11:32:13.321Z,215
2017-09-11T11:33:24.012Z,210
2017-09-11T11:34:34.460Z,210
2017-09-11T11:35:45.178Z,215
2017-09-11T11:36:55.719Z,190
2017-09-11T11:38:05.854Z,190
2017-09-11T11:39:16.294Z,185
2017-09-11T11:40:26.760Z,180
2017-09-11T11:41:38.451Z,195
2017-09-11T11:42:48.890Z,220
2017-09-11T11:43:59.358Z,230
2017-09-11T11:45:09.803Z,225
2017-09-11T11:46:20.379Z,240
2017-09-11T11:47:31.080Z,275
2017-09-11T11:48:41.214Z,320
2017-09-11T11:49:51.709Z,340
2017-09-11T11:51:01.872Z,295
2017-09-11T11:52:12.449Z,265
2017-09-11T11:53:23.148Z,270
2017-09-11T11:54:33.591Z,305
2017-09-11T11:55:43.725Z,300
2017-09-11T11:56:54.177Z,280
2017-09-11T11:58:04.611Z,275
2017-09-11T11:59:15.338Z,310
2017-09-11T12:00:25.759Z,345
2017-09-11T12:01:35.906Z,330
2017-09-11T12:02:46.122Z,275
2017-09-11T12:03:56.882Z,255
2017-09-11T12:05:07.248Z,365
2017-09-11T12:06:17.769Z,425
2017-09-11T12:07:28.253Z,360
2017-09-11T12:08:38.716Z,330
2017-09-11T12:09:48.842Z,290
2017-09-11T12:10:59.570Z,310
2017-09-11T12:12:11.055Z,420
2017-09-11T12:13:21.193Z,595
2017-09-11T12:14:31.657Z,1075
2017-09-11T12:15:42.260Z,1005
2017-09-11T12:16:52.988Z,685
2017-09-11T12:18:04.437Z,630
2017-09-11T12:19:14.918Z,610
2017-09-11T12:20:25.345Z,1650
2017-09-11T12:21:35.841Z,1110
2017-09-11T12:22:46.664Z,730
2017-09-11T12:23:57.161Z,750
2017-09-11T12:25:07.635Z,665
2017-09-11T12:26:18.212Z,525
2017-09-11T12:27:28.501Z,455
2017-09-11T12:28:39.207Z,405
2017-09-11T12:29:49.763Z,380
2017-09-11T12:31:00.257Z,320
2017-09-11T12:32:10.299Z,260
2017-09-11T12:33:21.011Z,305
2017-09-11T12:34:31.820Z,480
2017-09-11T12:35:42.298Z,760
2017-09-11T12:36:52.730Z,1665
2017-09-11T12:38:03.307Z,1165
2017-09-11T12:39:13.781Z,1880
2017-09-11T12:40:24.477Z,3010
2017-09-11T12:41:34.978Z,2270
2017-09-11T12:42:45.419Z,1835
2017-09-11T12:43:55.876Z,2085
2017-09-11T12:45:06.008Z,1260
2017-09-11T12:46:16.445Z,1470
2017-09-11T12:47:26.950Z,1450
2017-09-11T12:48:37.416Z,840
2017-09-11T12:49:47.888Z,700
2017-09-11T12:50:58.325Z,655
2017-09-11T12:52:08.582Z,515
2017-09-11T12:53:19.035Z,425
2017-09-11T12:54:29.177Z,350
2017-09-11T12:55:39.783Z,345
2017-09-11T12:56:49.917Z,380
2017-09-11T12:58:00.627Z,410
2017-09-11T12:59:11.145Z,330
2017-09-11T13:00:21.621Z,270
2017-09-11T13:01:32.097Z,215
2017-09-11T13:02:42.566Z,200
2017-09-11T13:03:53.261Z,195
2017-09-11T13:05:03.723Z,200
2017-09-11T13:06:14.160Z,180
2017-09-11T13:07:24.667Z,210
2017-09-11T13:08:35.111Z,210
2017-09-11T13:09:45.803Z,230
2017-09-11T13:10:56.261Z,225
2017-09-11T13:12:06.759Z,200
2017-09-11T13:13:17.265Z,170
2017-09-11T13:14:28.729Z,200
2017-09-11T13:15:38.971Z,235
2017-09-11T13:16:49.461Z,260
2017-09-11T13:17:59.892Z,215
2017-09-11T13:19:10.363Z,180
2017-09-11T13:20:21.056Z,155
2017-09-11T13:21:31.501Z,125
2017-09-11T13:22:41.975Z,120
2017-09-11T13:23:52.712Z,100
2017-09-11T13:25:03.173Z,90
2017-09-11T13:26:13.634Z,100
2017-09-11T13:27:24.266Z,115
2017-09-11T13:28:34.764Z,105
2017-09-11T13:29:45.235Z,95
2017-09-11T13:30:55.676Z,95
2017-09-11T13:32:05.818Z,110
2017-09-11T13:33:15.935Z,170
2017-09-11T13:34:26.383Z,220
2017-09-11T13:35:36.852Z,240
2017-09-11T13:36:47.319Z,255
2017-09-11T13:37:57.825Z,260
2017-09-11T13:39:08.258Z,295
2017-09-11T13:40:18.738Z,315
2017-09-11T13:41:29.167Z,355
2017-09-11T13:42:39.671Z,385
2017-09-11T13:43:50.122Z,355
2017-09-11T13:45:00.596Z,365
2017-09-11T13:46:11.050Z,395
2017-09-11T13:47:21.630Z,495
2017-09-11T13:48:32.117Z,655
2017-09-11T13:49:42.581Z,2310
2017-09-11T13:50:52.736Z,665
2017-09-11T13:52:03.210Z,655
2017-09-11T13:53:13.646Z,635
2017-09-11T13:54:24.118Z,675
2017-09-11T13:55:34.561Z,715
2017-09-11T13:56:44.978Z,715
2017-09-11T13:57:55.603Z,710
2017-09-11T13:59:06.115Z,620
2017-09-11T14:00:16.788Z,525
2017-09-11T14:01:26.910Z,485
2017-09-11T14:02:37.349Z,410
2017-09-11T14:03:47.791Z,345
2017-09-11T14:04:58.252Z,300
2017-09-11T14:06:08.497Z,275
2017-09-11T14:07:18.651Z,265
2017-09-11T14:08:28.927Z,260
2017-09-11T14:09:39.387Z,265
2017-09-11T14:10:49.872Z,290
2017-09-11T14:12:00.008Z,295
2017-09-11T14:13:10.006Z,300
2017-09-11T14:14:20.569Z,290
2017-09-11T14:15:31.019Z,315
2017-09-11T14:16:41.513Z,350
2017-09-11T14:17:51.999Z,315
2017-09-11T14:19:02.439Z,275
2017-09-11T14:20:12.585Z,260
2017-09-11T14:21:23.053Z,250
2017-09-11T14:22:33.493Z,255
2017-09-11T14:23:43.854Z,265
2017-09-11T14:24:53.842Z,280
2017-09-11T14:26:04.318Z,310
2017-09-11T14:27:14.949Z,450
2017-09-11T14:28:25.088Z,550
2017-09-11T14:29:35.533Z,575
2017-09-11T14:30:46.000Z,875
2017-09-11T14:31:56.505Z,755
2017-09-11T14:33:06.978Z,660
2017-09-11T14:34:17.414Z,620
2017-09-11T14:35:27.854Z,500
2017-09-11T14:36:38.011Z,445
2017-09-11T14:37:48.593Z,360
2017-09-11T14:38:58.966Z,310
2017-09-11T14:40:09.438Z,300
2017-09-11T14:41:19.904Z,320
2017-09-11T14:42:30.093Z,295
2017-09-11T14:43:40.613Z,290
2017-09-11T14:44:51.171Z,305
2017-09-11T14:46:01.608Z,310
2017-09-11T14:47:12.057Z,305
2017-09-11T14:48:22.377Z,310
2017-09-11T14:49:32.828Z,330
2017-09-11T14:50:43.297Z,395
2017-09-11T14:51:53.755Z,350
2017-09-11T14:53:04.296Z,365
2017-09-11T14:54:14.957Z,330
2017-09-11T14:55:25.396Z,325
2017-09-11T14:56:35.866Z,305
2017-09-11T14:57:46.342Z,265
2017-09-11T14:58:56.996Z,250
2017-09-11T15:00:07.581Z,245
2017-09-11T15:01:17.672Z,260
2017-09-11T15:02:28.138Z,285
2017-09-11T15:03:38.795Z,330
2017-09-11T15:04:49.007Z,375
2017-09-11T15:05:59.477Z,355
2017-09-11T15:07:09.942Z,300
2017-09-11T15:08:20.373Z,225
2017-09-11T15:09:30.912Z,195
2017-09-11T15:10:41.380Z,210
2017-09-11T15:11:51.605Z,230
2017-09-11T15:13:01.770Z,905
2017-09-11T15:14:11.819Z,1095
2017-09-11T15:15:21.940Z,1560
2017-09-11T15:16:32.444Z,930
2017-09-11T15:17:42.963Z,795
2017-09-11T15:18:53.493Z,1320
2017-09-11T15:20:03.956Z,1205
2017-09-11T15:21:14.423Z,1095
2017-09-11T15:22:24.899Z,1150
2017-09-11T15:23:35.512Z,1230
2017-09-11T15:24:45.989Z,1150
2017-09-11T15:25:56.450Z,1045
2017-09-11T15:27:06.983Z,1005
2017-09-11T15:28:17.452Z,980
2017-09-11T15:29:27.919Z,995
2017-09-11T15:30:38.399Z,990
2017-09-11T15:31:48.907Z,945
2017-09-11T15:32:59.398Z,945
2017-09-11T15:34:09.849Z,965
2017-09-11T15:35:20.303Z,955
2017-09-11T15:36:30.752Z,985
2017-09-11T15:37:41.180Z,1015
2017-09-11T15:38:51.711Z,1025
2017-09-11T15:40:02.164Z,960
2017-09-11T15:41:12.664Z,880
2017-09-11T15:42:23.323Z,840
2017-09-11T15:43:33.774Z,815
2017-09-11T15:44:44.248Z,820
2017-09-11T15:45:54.707Z,815
2017-09-11T15:47:04.881Z,870
2017-09-11T15:48:15.366Z,890
2017-09-11T15:49:25.847Z,835
2017-09-11T15:50:36.099Z,835
2017-09-11T15:51:46.542Z,885
2017-09-11T15:52:56.997Z,920
2017-09-11T15:54:07.169Z,820
2017-09-11T15:55:17.673Z,735
2017-09-11T15:56:28.176Z,755
2017-09-11T15:57:38.654Z,705
2017-09-11T15:58:49.140Z,640
2017-09-11T15:59:59.607Z,620
2017-09-11T16:01:09.842Z,520
2017-09-11T16:02:20.373Z,325
2017-09-11T16:03:30.828Z,270
2017-09-11T16:04:41.069Z,245
2017-09-11T16:05:51.259Z,235
2017-09-11T16:07:01.725Z,220
2017-09-11T16:08:11.964Z,210
2017-09-11T16:09:22.445Z,205
2017-09-11T16:10:32.918Z,190
2017-09-11T16:11:43.401Z,185
2017-09-11T16:12:53.899Z,180
2017-09-11T16:14:04.419Z,175
2017-09-11T16:15:14.962Z,170
2017-09-11T16:16:25.431Z,165
2017-09-11T16:17:35.886Z,155
2017-09-11T16:18:46.367Z,150
2017-09-11T16:19:56.545Z,145
2017-09-11T16:21:07.018Z,140
2017-09-11T16:22:17.493Z,135
2017-09-11T16:23:28.045Z,130
2017-09-11T16:24:38.548Z,125
2017-09-11T16:25:49.012Z,120
2017-09-11T16:26:59.470Z,110
2017-09-11T16:28:09.488Z,105
2017-09-11T16:29:19.705Z,105
2017-09-11T16:30:30.179Z,105